Aérodrome :
LOGIN :

S'inscrire | Disclaimer

   EN    FR    IT 

 










Légende :    VFR   VFR Marginal   IFR   IFR Intensif   IFR Très Intensif
Visi : 
Plafond : 
>= 8 km
>= 3000ft
5 à 8 km
1000 à 3000 ft
1500m à 5 km
500 à 1000 ft
800 à 1500m
200 à 500 ft
< 800m
< 200 ft
Symboles :   Orages  Brouillard  Fortes neiges  Fortes précipitations  Vent > 20 kt
SIGMETs :   Divers  Orages  Givrage  Turbulence  Onde Orograph.  Cendres Volcan.







- Altitude de l'aérodrome : 458 ft
- Voir les cartes d'approche


LFSI - St-Dizier

DERNIER METAR :
  • 221730Z AUTO 22008KT CAVOK 24/11 Q1013

METARs EXPIRÉS :
  • 221700Z AUTO 22008KT CAVOK 25/11 Q1013
  • 221630Z AUTO 23008KT CAVOK 25/11 Q1013
  • 221600Z AUTO 22009KT CAVOK 25/10 Q1013
  • 221530Z AUTO 22010KT 190V250 CAVOK 26/10 Q1013
  • 221500Z AUTO 22010KT CAVOK 26/10 Q1013

TAF TAF LFSI
Valide du 22 à 15h jusqu'au 23 à 15h UTC


221400Z 2215/2315 22010KT CAVOK
PROB40
TEMPO 2220/2306 3000 TSRA BKN040CB
PROB40
TEMPO 2308/2313 4000 SHRA BKN040TCU
Pas de NOTAMs connus pour ce terrain.
1 SIGMET publié pour la FIR Paris (LFFF) :
 
Orages noyés dans la masse
LFFF SIGMET 3 VALID 221720/221900 LFPW
LFFF PARIS FIR/UIR EMBD TS FCST WI N4930 E00145 - N4815 E00200 - N4800 E00115 - N4915 E00045 - N4930 E00145 TOP FL250 MOV NE 20KT NC=



MET'MAP, la Météo Aéronautique d'un coup d'oeil ! - Copyright ORBIFLY Décembre 2007 - Disclaimer

ORBIFLY MET'MAP TEAM :

Programmation & Développement : Alexandra Zaïnal
Conception & Développement : Baudouin d'Aumeries
Co-Programmation & Développement : Marc-Olivier Méhu
Soutien technique & logistique : Manuel Goepfert

Contact : metmap@orbifly.com




SOURCES & CREDITS :

   NOAA